Time;durP1;ratioP1;P1;durP2;ratioP2;P2;SDS_P1;SDS_P2;PMS_P1;PMS_P2;Temp;Humidity;BMP_temperature;BMP_pressure;BME280_temperature;BME280_humidity;BME280_pressure;Samples;Min_cycle;Max_cycle;Signal;HPM_P1;HPM_P2
2021/11/12 00:12:44;;;;;;;14.45;4.35;;;;;;;21.31;46.66;100347.09;4976861;28;20163;-72
2021/11/12 00:15:11;;;;;;;16.65;4.45;;;;;;;21.65;46.09;100344.75;4976573;28;20109;-71
2021/11/12 00:17:38;;;;;;;15.93;4.97;;;;;;;21.67;46.02;100349.91;4976496;28;20026;-71
2021/11/12 00:20:05;;;;;;;17.58;4.82;;;;;;;21.64;45.80;100342.34;4976426;28;20035;-71
2021/11/12 00:22:31;;;;;;;14.80;3.88;;;;;;;21.54;46.00;100321.72;4976482;28;20033;-72
2021/11/12 00:24:59;;;;;;;19.35;4.70;;;;;;;21.59;45.51;100319.31;4976459;28;20030;-72
2021/11/12 00:27:26;;;;;;;16.67;4.72;;;;;;;21.51;45.59;100312.16;4976341;28;20031;-71
2021/11/12 00:32:41;;;;;;;21.02;4.70;;;;;;;21.50;45.46;100307.81;4976253;28;20069;-71
2021/11/12 00:40:16;;;;;;;16.13;4.32;;;;;;;21.35;45.33;100297.09;4976154;28;20161;-74
2021/11/12 00:43:05;;;;;;;18.02;5.05;;;;;;;21.27;45.41;100297.09;4975994;28;20027;-71
2021/11/12 00:45:31;;;;;;;20.00;4.70;;;;;;;21.25;45.14;100288.31;4975379;28;20035;-71
2021/11/12 00:50:53;;;;;;;23.25;5.30;;;;;;;21.07;45.42;100287.50;4975985;28;20081;-71
2021/11/12 00:55:45;;;;;;;20.08;4.75;;;;;;;21.07;45.14;100281.94;4976111;28;20094;-71
2021/11/12 00:58:15;;;;;;;20.50;5.13;;;;;;;20.98;45.23;100274.00;4975838;28;20029;-71
2021/11/12 01:00:45;;;;;;;18.30;4.90;;;;;;;20.96;45.01;100275.59;4975547;28;20055;-72
2021/11/12 01:03:11;;;;;;;27.95;5.72;;;;;;;20.97;45.13;100261.31;4974672;28;20110;-71
2021/11/12 01:05:37;;;;;;;25.10;6.05;;;;;;;20.94;45.21;100262.13;4975642;28;20027;-71
2021/11/12 01:08:03;;;;;;;27.27;5.07;;;;;;;20.89;45.11;100256.94;4975564;28;20042;-72
2021/11/12 01:10:30;;;;;;;20.00;5.53;;;;;;;20.80;45.27;100255.75;4975596;28;20102;-74
2021/11/12 01:12:59;;;;;;;25.70;5.63;;;;;;;20.77;45.28;100257.31;4975552;28;20034;-72
2021/11/12 01:15:26;;;;;;;24.08;5.40;;;;;;;20.77;45.22;100257.31;4975389;28;20027;-71
2021/11/12 01:17:52;;;;;;;24.50;6.15;;;;;;;20.75;45.13;100243.03;4975440;28;20167;-71
2021/11/12 01:20:20;;;;;;;27.08;5.22;;;;;;;20.62;45.25;100231.50;4975574;28;20023;-71
2021/11/12 01:22:47;;;;;;;23.13;5.78;;;;;;;20.59;45.24;100240.63;4975633;28;20385;-72
2021/11/12 01:25:15;;;;;;;26.63;6.57;;;;;;;20.61;45.11;100232.69;4975256;28;20031;-72
2021/11/12 01:27:42;;;;;;;25.08;6.15;;;;;;;20.69;44.92;100223.19;4975229;28;20062;-72
2021/11/12 01:30:10;;;;;;;25.17;6.13;;;;;;;20.73;44.87;100217.66;4975516;28;20023;-74
2021/11/12 01:32:36;;;;;;;24.15;5.88;;;;;;;20.76;44.83;100225.19;4975120;28;20381;-71
2021/11/12 01:35:03;;;;;;;20.17;6.68;;;;;;;20.77;44.70;100216.44;4975129;28;20084;-76
2021/11/12 01:37:30;;;;;;;31.83;6.82;;;;;;;20.82;44.77;100220.84;4975269;28;20081;-71
2021/11/12 01:40:00;;;;;;;29.88;6.18;;;;;;;20.83;44.79;100218.84;4975011;28;20050;-71
2021/11/12 01:42:55;;;;;;;24.85;6.05;;;;;;;20.82;44.75;100206.94;4974905;28;20375;-71
2021/11/12 01:45:30;;;;;;;23.02;6.38;;;;;;;20.85;44.66;100211.69;4974894;28;20363;-72
2021/11/12 01:51:03;;;;;;;24.42;6.68;;;;;;;20.67;45.00;100197.00;4914992;29;20032;-72
2021/11/12 01:53:35;;;;;;;22.00;6.43;;;;;;;20.74;44.73;100203.38;4964738;28;20489;-71
2021/11/12 01:56:26;;;;;;;28.13;6.18;;;;;;;20.72;44.72;100196.63;4957386;28;20122;-74
2021/11/12 02:01:31;;;;;;;31.13;7.05;;;;;;;20.74;44.73;100183.94;4974644;28;20078;-72
2021/11/12 02:03:57;;;;;;;24.10;6.05;;;;;;;20.73;44.61;100173.22;4974635;28;20035;-75
2021/11/12 02:06:23;;;;;;;29.08;6.47;;;;;;;20.74;44.66;100180.38;4974444;28;20019;-71
2021/11/12 02:08:50;;;;;;;27.90;6.78;;;;;;;20.69;44.78;100169.66;4974599;28;20026;-72
2021/11/12 02:11:17;;;;;;;24.40;6.35;;;;;;;20.73;44.63;100167.69;4974426;28;20027;-72
2021/11/12 02:13:43;;;;;;;32.30;6.82;;;;;;;20.67;45.06;100158.16;4973498;28;20099;-71
2021/11/12 02:16:19;;;;;;;21.38;5.97;;;;;;;20.57;45.21;100158.94;4973461;28;20030;-71
2021/11/12 02:18:45;;;;;;;26.63;8.07;;;;;;;20.63;44.94;100155.38;4974340;28;20037;-70
2021/11/12 02:23:57;;;;;;;27.48;6.53;;;;;;;20.52;45.38;100162.09;4974553;28;20486;-70
2021/11/12 02:26:25;;;;;;;28.67;8.20;;;;;;;20.71;45.10;100153.41;4974216;28;20023;-70
2021/11/12 02:28:56;;;;;;;31.05;6.15;;;;;;;20.65;45.32;100152.22;4974071;28;20086;-70
2021/11/12 02:31:23;;;;;;;27.42;8.00;;;;;;;20.63;45.19;100144.28;4974123;28;20548;-69
2021/11/12 02:33:50;;;;;;;33.13;7.47;;;;;;;20.69;45.40;100141.88;4956819;28;20114;-72
2021/11/12 02:36:18;;;;;;;37.55;8.85;;;;;;;20.86;45.02;100152.22;4974080;28;20429;-72
2021/11/12 02:38:47;;;;;;;29.50;6.63;;;;;;;20.89;45.10;100156.19;4974041;28;20105;-72
2021/11/12 02:41:14;;;;;;;25.60;7.55;;;;;;;20.95;44.90;100160.16;4973920;28;20038;-72
2021/11/12 02:43:41;;;;;;;26.90;6.13;;;;;;;21.05;44.83;100146.25;4973836;28;20023;-72
2021/11/12 02:46:09;;;;;;;27.00;7.35;;;;;;;21.04;44.84;100143.88;4973842;28;20054;-72
2021/11/12 02:48:37;;;;;;;29.25;6.72;;;;;;;20.97;44.88;100139.13;4973707;28;20058;-72
2021/11/12 02:51:10;;;;;;;30.77;8.38;;;;;;;20.98;44.95;100128.81;4973715;28;20474;-71
2021/11/12 02:53:37;;;;;;;21.73;6.50;;;;;;;20.95;44.78;100126.81;4974074;28;20031;-71
2021/11/12 02:56:07;;;;;;;24.95;6.70;;;;;;;20.90;44.88;100125.22;4973828;28;20094;-72
2021/11/12 02:58:33;;;;;;;33.30;8.40;;;;;;;20.97;44.67;100119.69;4973969;28;20069;-71
2021/11/12 03:00:59;;;;;;;23.23;6.38;;;;;;;20.97;44.58;100125.22;4973594;28;20146;-72
2021/11/12 03:03:27;;;;;;;26.70;6.80;;;;;;;20.90;44.82;100124.44;4956381;28;20113;-71
2021/11/12 03:05:53;;;;;;;29.98;7.00;;;;;;;20.92;44.57;100111.75;4973600;28;20031;-72
2021/11/12 03:08:19;;;;;;;27.13;7.50;;;;;;;20.99;44.47;100119.28;4973821;28;20114;-72
2021/11/12 03:10:45;;;;;;;31.42;8.10;;;;;;;21.01;44.19;100106.59;4973629;28;20038;-72
2021/11/12 03:13:11;;;;;;;27.52;7.40;;;;;;;20.85;44.57;100100.63;4970935;28;20015;-72
2021/11/12 03:15:37;;;;;;;25.60;6.47;;;;;;;20.88;44.47;100094.31;4956127;28;20441;-71
2021/11/12 03:18:03;;;;;;;31.05;7.47;;;;;;;20.91;44.20;100090.72;4973555;28;20090;-71
2021/11/12 03:20:30;;;;;;;24.67;6.75;;;;;;;20.85;44.41;100085.97;4973827;28;20026;-71
2021/11/12 03:23:18;;;;;;;25.83;5.85;;;;;;;20.76;44.46;100087.16;4973454;28;20027;-72
2021/11/12 03:31:31;;;;;;;29.75;6.78;;;;;;;20.68;44.39;100090.34;4977704;28;20109;-72
2021/11/12 04:04:10;;;;;;;28.27;6.95;;;;;;;20.76;44.01;100066.94;4976907;28;20038;-72
2021/11/12 04:17:34;;;;;;;23.88;7.50;;;;;;;20.87;43.76;100062.19;4976679;28;20583;-72
2021/11/12 04:30:52;;;;;;;22.55;6.90;;;;;;;20.86;44.13;100055.03;4976576;28;20041;-71
2021/11/12 04:50:00;;;;;;;27.73;7.43;;;;;;;20.76;44.88;100028.06;4976108;28;20061;-72
2021/11/12 05:12:03;;;;;;;28.92;6.47;;;;;;;20.53;45.35;100013.81;4975656;28;20114;-71
2021/11/12 05:26:21;;;;;;;17.02;4.72;;;;;;;20.14;45.83;100000.72;4878471;29;20073;-72
2021/11/12 05:50:20;;;;;;;14.68;4.00;;;;;;;19.78;46.03;99967.41;4974292;28;20045;-71
2021/11/12 05:55:30;;;;;;;11.73;2.95;;;;;;;19.73;45.93;99958.72;4974789;28;20057;-71
2021/11/12 05:57:58;;;;;;;12.82;3.63;;;;;;;19.57;45.98;99942.44;4974561;28;20110;-71
2021/11/12 06:00:24;;;;;;;14.23;4.18;;;;;;;19.86;45.48;99951.59;4974200;28;20058;-71
2021/11/12 06:02:50;;;;;;;12.23;3.60;;;;;;;19.69;45.87;99947.59;4973072;28;20037;-71
2021/11/12 06:05:17;;;;;;;13.73;4.10;;;;;;;19.73;45.61;99945.66;4973274;28;20035;-71
2021/11/12 06:07:43;;;;;;;12.82;4.15;;;;;;;19.78;45.52;99945.25;4974514;28;20485;-71
2021/11/12 06:10:09;;;;;;;15.88;4.10;;;;;;;19.79;45.44;99940.47;4974525;28;20038;-71
2021/11/12 06:12:34;;;;;;;18.85;5.53;;;;;;;19.72;45.65;99946.81;4974634;28;20470;-71
2021/11/12 06:15:00;;;;;;;20.70;5.35;;;;;;;19.79;45.28;99932.97;4974417;28;20612;-72
2021/11/12 06:17:26;;;;;;;16.55;5.28;;;;;;;19.67;45.58;99936.94;4974388;28;20031;-71
2021/11/12 06:19:52;;;;;;;13.73;4.47;;;;;;;19.68;45.70;99926.63;4974290;28;20031;-71
2021/11/12 06:22:18;;;;;;;19.88;5.28;;;;;;;19.85;45.20;99925.84;4974253;28;20057;-71
2021/11/12 06:24:43;;;;;;;25.63;4.82;;;;;;;19.89;45.09;99926.66;4974212;28;20109;-71
2021/11/12 06:27:09;;;;;;;21.48;4.53;;;;;;;19.84;45.17;99924.25;4974208;28;20077;-71
2021/11/12 06:29:35;;;;;;;17.58;3.97;;;;;;;19.82;45.13;99923.09;4974091;28;20034;-71
2021/11/12 06:32:01;;;;;;;16.40;3.80;;;;;;;19.85;44.97;99923.06;4974198;28;20033;-71
2021/11/12 06:34:28;;;;;;;17.52;4.80;;;;;;;19.80;45.26;99923.47;4974002;28;20042;-71
2021/11/12 06:36:54;;;;;;;16.25;4.07;;;;;;;19.74;45.38;99908.44;4973947;28;20034;-71
2021/11/12 06:39:20;;;;;;;14.75;3.55;;;;;;;19.71;45.36;99911.97;4974276;28;20027;-70
2021/11/12 06:49:52;;;;;;;9.90;2.97;;;;;;;19.66;45.48;99896.53;4971686;28;20038;-70
2021/11/12 06:52:21;;;;;;;8.27;3.05;;;;;;;19.82;45.07;99893.38;4971139;28;20470;-70
2021/11/12 06:54:47;;;;;;;14.52;4.32;;;;;;;19.73;45.49;99889.44;4973816;28;20174;-71
2021/11/12 06:57:17;;;;;;;10.25;3.05;;;;;;;19.77;45.33;99891.00;4973656;28;20047;-70
2021/11/12 06:59:43;;;;;;;12.45;3.28;;;;;;;19.90;44.95;99878.34;4968498;28;20038;-71
2021/11/12 07:02:10;;;;;;;10.73;2.80;;;;;;;19.80;45.24;99886.63;4957133;28;20037;-71
2021/11/12 07:04:37;;;;;;;13.88;3.58;;;;;;;19.73;45.41;99883.88;4957801;28;20030;-71
2021/11/12 07:07:05;;;;;;;14.82;3.83;;;;;;;19.80;45.22;99881.09;4956837;28;20034;-71
2021/11/12 07:09:31;;;;;;;10.23;3.22;;;;;;;19.72;45.50;99879.50;4956708;28;20059;-71
2021/11/12 07:11:57;;;;;;;15.55;3.30;;;;;;;19.57;45.81;99875.94;4970783;28;20038;-70
2021/11/12 07:14:23;;;;;;;11.43;3.15;;;;;;;19.85;45.15;99887.03;4973382;28;20034;-70
2021/11/12 07:16:48;;;;;;;11.85;3.45;;;;;;;20.02;44.74;99892.97;4973457;28;20027;-70
2021/11/12 07:19:14;;;;;;;12.25;3.72;;;;;;;19.84;45.29;99895.75;4964594;28;20355;-70
2021/11/12 07:21:40;;;;;;;11.55;2.53;;;;;;;19.75;45.61;99896.16;4962757;28;20462;-70
2021/11/12 07:24:05;;;;;;;12.63;3.05;;;;;;;19.93;45.25;99885.06;4973409;28;20041;-70
2021/11/12 07:26:32;;;;;;;10.77;3.65;;;;;;;19.90;45.35;99878.34;4973384;28;20033;-71
2021/11/12 07:28:59;;;;;;;9.82;2.45;;;;;;;19.88;45.42;99871.59;4973371;28;20030;-71
2021/11/12 07:31:25;;;;;;;13.77;3.83;;;;;;;19.91;45.37;99862.50;4973284;28;20038;-70
2021/11/12 07:33:52;;;;;;;9.75;2.88;;;;;;;19.69;46.09;99856.16;4973302;28;20027;-70
2021/11/12 07:36:22;;;;;;;12.10;3.08;;;;;;;19.49;46.74;99847.41;4965127;28;20122;-71
2021/11/12 07:38:59;;;;;;;11.43;3.75;;;;;;;19.75;45.93;99854.56;4957043;28;20062;-71
2021/11/12 07:41:53;;;;;;;12.25;2.35;;;;;;;19.72;46.09;99852.56;4957068;28;20031;-73
2021/11/12 07:47:02;;;;;;;11.68;3.10;;;;;;;19.72;46.16;99849.03;4956809;28;20046;-71
2021/11/12 07:49:28;;;;;;;13.13;3.45;;;;;;;19.89;45.69;99860.13;4957127;28;20050;-71
2021/11/12 07:51:55;;;;;;;13.15;3.33;;;;;;;19.59;46.68;99854.19;4939346;28;20031;-72
2021/11/12 07:54:21;;;;;;;10.35;3.22;;;;;;;19.71;46.40;99830.81;4957172;28;20057;-72
2021/11/12 07:56:48;;;;;;;9.48;3.35;;;;;;;19.65;46.66;99861.72;4956861;28;20122;-74
2021/11/12 07:59:13;;;;;;;9.65;3.50;;;;;;;19.65;46.70;99861.72;4957360;28;20034;-71
2021/11/12 08:01:40;;;;;;;16.48;4.60;;;;;;;19.78;46.57;99878.72;4956937;28;20803;-73
2021/11/12 08:04:07;;;;;;;11.65;3.55;;;;;;;19.74;46.91;99874.38;4956370;28;20019;-73
2021/11/12 08:06:33;;;;;;;11.50;3.90;;;;;;;19.74;46.87;99874.38;4960696;28;20162;-72
2021/11/12 08:09:05;;;;;;;14.98;3.13;;;;;;;19.84;46.52;99879.91;4973053;28;20030;-72
2021/11/12 08:11:43;;;;;;;18.38;3.40;;;;;;;19.75;46.88;99878.72;4957420;28;20163;-73
2021/11/12 08:14:14;;;;;;;23.75;4.28;;;;;;;19.81;46.92;99875.16;4959562;28;20480;-74
2021/11/12 08:17:07;;;;;;;10.50;3.22;;;;;;;19.83;46.59;99888.63;4943100;28;20062;-74
2021/11/12 08:22:27;;;;;;;12.20;3.70;;;;;;;20.02;46.64;99890.19;4960755;28;20045;-72
2021/11/12 08:25:14;;;;;;;14.93;3.05;;;;;;;19.86;47.17;99871.19;4959885;28;20113;-73
2021/11/12 08:38:01;;;;;;;10.60;2.78;;;;;;;19.99;47.48;99885.44;4970225;28;20533;-71
2021/11/12 08:40:44;;;;;;;9.15;2.53;;;;;;;20.17;46.97;99880.66;4976438;28;20038;-72
2021/11/12 08:43:18;;;;;;;10.68;3.25;;;;;;;20.10;47.32;99880.66;4976148;28;20070;-73
2021/11/12 08:45:59;;;;;;;10.05;2.25;;;;;;;20.19;47.14;99875.53;4976241;28;20031;-72
2021/11/12 08:48:38;;;;;;;12.73;2.63;;;;;;;20.24;46.99;99884.22;4976066;28;20038;-72
2021/11/12 08:51:11;;;;;;;7.80;2.92;;;;;;;19.90;48.24;99874.75;4975984;28;20073;-72
2021/11/12 08:53:38;;;;;;;7.00;2.30;;;;;;;20.08;47.79;99877.50;4975879;28;20034;-72
2021/11/12 08:56:04;;;;;;;9.40;2.05;;;;;;;20.12;47.69;99862.47;4975998;28;20030;-72
2021/11/12 08:58:30;;;;;;;9.32;2.25;;;;;;;20.23;47.41;99879.88;4972782;28;20031;-72
2021/11/12 09:00:56;;;;;;;5.63;1.98;;;;;;;20.06;48.04;99871.59;4975370;28;20564;-72
2021/11/12 09:03:22;;;;;;;12.02;2.95;;;;;;;20.17;47.84;99875.13;4975633;28;20085;-72
2021/11/12 09:05:48;;;;;;;6.72;2.00;;;;;;;20.26;47.71;99860.88;4975535;28;20386;-72
2021/11/12 09:08:13;;;;;;;8.23;1.60;;;;;;;20.20;47.98;99847.41;4975214;28;20031;-72
2021/11/12 09:10:39;;;;;;;5.25;1.40;;;;;;;20.12;48.22;99862.47;4975329;28;20031;-72
2021/11/12 09:14:07;;;;;;;3.83;1.23;;;;;;;20.14;48.33;99864.84;4975760;28;20029;-72
2021/11/12 09:16:05;;;;;;;4.65;1.15;;;;;;;20.23;48.13;99870.75;4966372;28;20038;-72
2021/11/12 09:18:31;;;;;;;4.45;1.70;;;;;;;20.33;48.04;99867.19;4975658;28;20038;-72
2021/11/12 09:20:56;;;;;;;3.72;1.08;;;;;;;20.36;47.97;99863.59;4975443;28;20492;-72
2021/11/12 09:23:22;;;;;;;4.88;1.13;;;;;;;20.34;48.13;99873.53;4964687;28;20034;-73
2021/11/12 09:25:48;;;;;;;3.45;1.00;;;;;;;20.20;48.65;99863.25;4969957;28;20034;-72
2021/11/12 09:28:14;;;;;;;4.90;1.60;;;;;;;20.39;48.04;99876.66;4975125;28;20031;-72
2021/11/12 09:30:41;;;;;;;5.40;1.40;;;;;;;20.53;47.75;99863.97;4975274;28;20117;-72
2021/11/12 09:33:09;;;;;;;3.13;1.10;;;;;;;20.61;47.76;99860.78;4975458;28;20363;-72
2021/11/12 09:35:35;;;;;;;3.90;1.15;;;;;;;20.56;47.93;99863.19;4975167;28;20030;-72
2021/11/12 09:38:01;;;;;;;4.60;1.00;;;;;;;20.60;47.90;99850.06;4972851;28;20037;-72
2021/11/12 09:40:27;;;;;;;5.05;1.10;;;;;;;20.36;48.79;99846.94;4974502;28;20061;-72
2021/11/12 09:42:53;;;;;;;3.63;1.00;;;;;;;20.63;47.94;99857.59;4974872;28;20062;-72
2021/11/12 09:45:20;;;;;;;3.17;0.80;;;;;;;20.65;47.92;99855.22;4974715;28;20474;-72
2021/11/12 09:47:48;;;;;;;4.18;1.48;;;;;;;20.66;48.06;99860.38;4974913;28;20417;-73
2021/11/12 09:50:22;;;;;;;3.15;1.10;;;;;;;20.70;48.07;99869.44;4974690;28;20508;-72
2021/11/12 09:52:48;;;;;;;4.10;1.35;;;;;;;20.49;48.82;99870.34;4974794;28;20031;-72
2021/11/12 09:55:14;;;;;;;3.10;1.45;;;;;;;20.78;48.20;99881.31;4975058;28;20054;-72
2021/11/12 09:57:41;;;;;;;4.78;1.50;;;;;;;20.77;48.31;99893.63;4974607;28;20027;-72
2021/11/12 10:00:10;;;;;;;7.63;2.13;;;;;;;20.85;48.09;99889.63;4974581;28;20054;-72
2021/11/12 10:02:44;;;;;;;3.97;1.48;;;;;;;20.87;48.19;99892.81;4974623;28;20039;-73
2021/11/12 10:05:35;;;;;;;5.90;1.73;;;;;;;20.88;48.43;99891.59;4974669;28;20027;-73
2021/11/12 10:08:17;;;;;;;6.40;2.35;;;;;;;20.89;48.28;99898.75;4974488;28;20481;-73
2021/11/12 10:10:51;;;;;;;5.63;1.88;;;;;;;20.92;48.42;99897.13;4974695;28;20039;-73
2021/11/12 10:13:37;;;;;;;4.05;1.67;;;;;;;21.03;48.22;99898.69;4974302;28;20375;-73
2021/11/12 10:19:14;;;;;;;4.60;1.70;;;;;;;21.03;48.47;99904.22;4974521;28;20039;-72
2021/11/12 10:21:53;;;;;;;2.55;1.38;;;;;;;21.04;48.37;99916.91;4974453;28;20033;-71
2021/11/12 10:24:30;;;;;;;4.68;1.40;;;;;;;20.79;49.43;99919.03;4957076;28;20030;-71
2021/11/12 10:27:17;;;;;;;3.97;2.15;;;;;;;21.05;48.66;99923.25;4974218;28;20113;-72
2021/11/12 10:29:47;;;;;;;3.15;1.35;;;;;;;21.05;48.93;99924.06;4973668;28;20043;-71
2021/11/12 10:32:18;;;;;;;5.53;1.77;;;;;;;21.05;48.98;99917.72;4974142;28;20485;-72
2021/11/12 10:34:45;;;;;;;2.67;1.10;;;;;;;20.95;49.42;99921.34;4974104;28;20030;-72
2021/11/12 10:37:25;;;;;;;5.00;1.83;;;;;;;21.10;48.67;99919.28;4974004;28;20093;-71
2021/11/12 10:40:04;;;;;;;5.43;2.22;;;;;;;20.99;49.75;99924.88;4974313;28;20478;-71
2021/11/12 10:42:33;;;;;;;5.95;2.40;;;;;;;21.15;49.07;99932.75;4973953;28;20508;-71
2021/11/12 10:45:04;;;;;;;8.50;1.83;;;;;;;21.23;48.84;99935.06;4973821;28;20042;-72
2021/11/12 10:47:31;;;;;;;6.95;1.85;;;;;;;20.55;50.83;99923.44;4973941;28;20027;-71
2021/11/12 10:50:08;;;;;;;6.78;1.60;;;;;;;21.14;49.17;99929.16;4973784;28;20414;-72
2021/11/12 10:52:37;;;;;;;6.18;2.00;;;;;;;21.31;48.79;99938.63;4974063;28;20035;-73
2021/11/12 10:55:11;;;;;;;6.18;2.15;;;;;;;21.13;49.23;99940.69;4973689;28;20026;-72
2021/11/12 10:57:40;;;;;;;8.80;1.55;;;;;;;20.80;50.38;99940.03;4956672;28;20462;-72
2021/11/12 11:00:20;;;;;;;5.60;2.00;;;;;;;21.12;49.34;99941.88;4973502;28;20501;-72
2021/11/12 11:02:50;;;;;;;4.63;1.30;;;;;;;21.36;48.41;99943.78;4973689;28;20585;-71
2021/11/12 11:05:22;;;;;;;5.22;1.88;;;;;;;21.17;48.80;99956.16;4973699;28;20053;-71
2021/11/12 11:08:00;;;;;;;8.43;1.67;;;;;;;21.32;48.86;99954.91;4973668;28;20029;-72
2021/11/12 11:10:27;;;;;;;9.20;2.13;;;;;;;21.36;48.62;99962.44;4973826;28;20035;-72
2021/11/12 11:12:55;;;;;;;9.80;1.92;;;;;;;21.22;48.85;99968.81;4973526;28;20027;-72
2021/11/12 11:15:27;;;;;;;7.22;1.65;;;;;;;21.18;48.98;99973.63;4973584;28;20023;-72
2021/11/12 11:21:25;;;;;;;13.18;2.35;;;;;;;21.16;49.38;99971.25;4920159;28;20520;-71
2021/11/12 11:23:54;;;;;;;8.55;2.33;;;;;;;20.92;50.02;99981.22;4973541;28;20550;-72
2021/11/12 11:26:24;;;;;;;8.30;1.65;;;;;;;21.03;49.50;99982.00;4973475;28;20062;-72
2021/11/12 11:28:54;;;;;;;6.78;2.35;;;;;;;21.45;48.38;99985.81;4973595;28;20035;-71
2021/11/12 11:31:20;;;;;;;9.85;2.67;;;;;;;21.36;48.77;99987.44;4973315;28;20114;-72
2021/11/12 11:33:48;;;;;;;4.57;1.60;;;;;;;21.65;47.95;99983.31;4973335;28;20022;-73
2021/11/12 11:36:16;;;;;;;6.95;2.35;;;;;;;21.25;48.81;99976.38;4956095;28;20440;-70
2021/11/12 11:38:43;;;;;;;7.03;1.60;;;;;;;21.14;49.27;99995.03;4973258;28;20042;-70
2021/11/12 11:41:11;;;;;;;4.13;1.48;;;;;;;21.51;48.06;99989.75;4955975;28;20410;-70
2021/11/12 11:43:37;;;;;;;7.25;1.83;;;;;;;21.76;47.26;99995.16;4955723;28;20065;-70
2021/11/12 11:46:07;;;;;;;7.38;1.60;;;;;;;21.73;47.13;99990.41;4973338;28;20030;-70
2021/11/12 11:48:39;;;;;;;7.28;1.80;;;;;;;21.71;46.97;99992.03;4975573;28;20031;-70
2021/11/12 11:51:07;;;;;;;7.03;1.67;;;;;;;21.62;47.16;100003.59;4976902;28;20031;-70
2021/11/12 11:53:48;;;;;;;9.25;2.28;;;;;;;21.59;47.54;100005.19;4976969;28;20030;-70
2021/11/12 11:56:29;;;;;;;9.38;1.75;;;;;;;20.85;49.34;99997.91;4977124;28;20457;-70
2021/11/12 11:58:58;;;;;;;10.02;2.15;;;;;;;21.65;47.18;100000.00;4977053;28;20037;-70
2021/11/12 12:01:24;;;;;;;6.00;1.45;;;;;;;21.67;46.86;100002.38;4976796;28;20125;-70
2021/11/12 12:04:07;;;;;;;3.70;1.33;;;;;;;21.40;47.59;99999.34;4977117;28;20553;-70
2021/11/12 12:06:34;;;;;;;4.82;1.27;;;;;;;21.66;46.77;99993.25;4976815;28;20023;-70
2021/11/12 12:09:08;;;;;;;3.50;1.65;;;;;;;21.56;46.81;100005.22;4976514;28;20038;-72
2021/11/12 12:11:46;;;;;;;8.68;1.80;;;;;;;21.65;46.56;99979.75;4959302;28;20030;-71
2021/11/12 12:14:25;;;;;;;4.15;1.65;;;;;;;21.92;46.11;99989.13;4976477;28;20424;-71
2021/11/12 12:17:14;;;;;;;7.57;1.87;;;;;;;21.57;47.18;99982.56;4959226;28;20109;-71
2021/11/12 12:20:04;;;;;;;6.68;1.40;;;;;;;21.54;46.93;99977.84;4976754;28;20381;-72
2021/11/12 13:25:56;;;;;;;2.05;0.52;;;;;;;21.66;46.16;100079.41;4975023;28;20042;-72
2021/11/12 13:28:26;;;;;;;3.35;1.35;;;;;;;21.39;46.21;100087.47;4975594;28;20034;-72
2021/11/12 13:30:55;;;;;;;3.53;1.45;;;;;;;21.63;45.89;100091.38;4975191;28;20449;-72
2021/11/12 13:33:29;;;;;;;2.95;0.95;;;;;;;21.52;45.57;100094.16;4975132;28;20055;-72
2021/11/12 13:35:56;;;;;;;1.48;0.70;;;;;;;21.92;44.96;100100.38;4975444;28;20031;-72
2021/11/12 13:38:31;;;;;;;2.88;0.93;;;;;;;21.68;45.29;100109.59;4974157;28;20039;-72
2021/11/12 13:41:01;;;;;;;3.33;1.30;;;;;;;22.17;44.14;100105.00;4974213;28;20520;-71
2021/11/12 13:43:27;;;;;;;2.13;0.90;;;;;;;22.09;44.87;100115.41;4975190;28;20477;-72
2021/11/12 13:45:57;;;;;;;3.20;1.27;;;;;;;22.35;43.52;100119.59;4974924;28;20268;-72
2021/11/12 13:48:23;;;;;;;4.55;1.00;;;;;;;22.07;44.59;100118.56;4974723;28;20038;-72
2021/11/12 13:51:00;;;;;;;2.42;0.85;;;;;;;22.17;44.15;100125.28;4975033;28;20042;-72
2021/11/12 13:53:33;;;;;;;2.83;0.77;;;;;;;22.17;43.73;100121.72;4974726;28;20035;-72
2021/11/12 13:56:01;;;;;;;2.45;0.70;;;;;;;22.10;44.19;100134.47;4974764;28;20030;-71
2021/11/12 13:58:28;;;;;;;2.25;0.93;;;;;;;22.26;43.77;100133.19;4974709;28;20540;-71
2021/11/12 14:00:56;;;;;;;3.05;0.90;;;;;;;22.33;43.36;100136.72;4974534;28;20050;-72
2021/11/12 14:03:37;;;;;;;4.47;1.08;;;;;;;22.03;43.99;100137.25;4974601;28;20101;-72
2021/11/12 14:06:12;;;;;;;2.80;1.13;;;;;;;22.14;43.59;100142.78;4974873;28;20030;-72
2021/11/12 14:08:45;;;;;;;3.55;0.80;;;;;;;21.90;43.59;100138.91;4974766;28;20031;-72
2021/11/12 14:11:31;;;;;;;5.65;1.30;;;;;;;21.50;44.77;100148.59;4974115;28;20054;-72
2021/11/12 14:14:05;;;;;;;4.20;1.15;;;;;;;21.50;44.55;100159.69;4974436;28;20027;-73
2021/11/12 14:16:38;;;;;;;2.95;0.82;;;;;;;21.09;45.01;100151.03;4969193;28;20031;-71
2021/11/12 14:21:42;;;;;;;2.25;0.98;;;;;;;21.60;43.76;100172.75;4974400;28;20117;-72
2021/11/12 14:32:46;;;;;;;3.63;0.90;;;;;;;21.22;43.24;100188.28;4974450;28;20030;-71
2021/11/12 14:42:18;;;;;;;3.10;0.70;;;;;;;21.00;42.05;100204.16;4960864;28;20035;-72
2021/11/12 14:46:41;;;;;;;4.60;0.90;;;;;;;20.52;42.84;100207.28;4973483;28;20070;-72
2021/11/12 14:52:02;;;;;;;2.33;0.85;;;;;;;20.12;43.48;100205.56;4973819;28;20409;-72
2021/11/12 14:54:33;;;;;;;8.25;2.78;;;;;;;20.14;43.81;100209.53;4973562;28;20497;-73
2021/11/12 14:57:00;;;;;;;2.17;0.80;;;;;;;20.73;42.23;100201.00;4973906;28;20035;-71
2021/11/12 14:59:26;;;;;;;3.22;0.90;;;;;;;20.73;42.36;100224.00;4973788;28;20497;-75
2021/11/12 15:01:52;;;;;;;4.47;1.20;;;;;;;20.39;43.13;100229.03;4973685;28;20043;-76
2021/11/12 15:04:18;;;;;;;17.15;2.10;;;;;;;20.94;41.91;100223.22;4973933;28;20031;-75
2021/11/12 15:06:45;;;;;;;5.35;2.63;;;;;;;20.93;42.28;100226.38;4973671;28;20031;-76
2021/11/12 15:11:43;;;;;;;3.95;1.30;;;;;;;20.64;42.70;100231.13;4973731;28;20065;-75
2021/11/12 15:14:14;;;;;;;3.90;0.98;;;;;;;20.60;42.67;100228.31;4973621;28;20023;-75
2021/11/12 15:16:41;;;;;;;10.55;1.50;;;;;;;20.37;43.12;100231.41;4973506;28;20023;-75
2021/11/12 15:19:12;;;;;;;10.73;1.33;;;;;;;20.68;42.43;100243.00;4973863;28;20038;-75
2021/11/12 15:24:27;;;;;;;5.20;0.90;;;;;;;20.46;42.79;100267.13;4974257;28;20030;-81
2021/11/12 15:27:00;;;;;;;9.40;2.05;;;;;;;20.32;43.01;100270.63;4959669;28;20105;-76
2021/11/12 15:29:36;;;;;;;3.75;1.20;;;;;;;20.58;42.60;100263.22;4954549;28;20102;-75
2021/11/12 15:35:02;;;;;;;3.42;0.93;;;;;;;20.50;42.69;100265.97;4977578;28;20458;-75
2021/11/12 15:37:39;;;;;;;4.80;1.83;;;;;;;20.21;43.28;100272.56;4977457;28;20120;-75
2021/11/12 15:40:20;;;;;;;5.78;1.23;;;;;;;20.27;43.22;100290.44;4977271;28;20031;-75
2021/11/12 15:46:22;;;;;;;1.77;1.00;;;;;;;19.29;45.81;100317.84;4977802;28;20031;-82
2021/11/12 15:48:15;;;;;;;3.53;1.02;;;;;;;19.77;44.81;100323.41;4953120;28;20035;-77
2021/11/12 16:12:12;;;;;;;4.38;1.20;;;;;;;19.93;44.85;100337.78;4960013;28;20033;-77
2021/11/12 16:25:24;;;;;;;3.55;1.30;;;;;;;20.05;44.15;100369.16;4957596;28;20039;-76
2021/11/12 16:27:53;;;;;;;2.70;0.90;;;;;;;19.94;44.40;100372.63;4958113;28;20027;-75
2021/11/12 16:30:23;;;;;;;7.15;1.33;;;;;;;19.84;44.82;100384.44;4959030;28;20182;-76
2021/11/12 16:32:53;;;;;;;7.15;1.08;;;;;;;20.01;44.42;100391.31;4959054;28;20039;-78
2021/11/12 16:35:22;;;;;;;4.07;1.35;;;;;;;19.91;44.71;100389.25;4957398;28;20033;-74
2021/11/12 16:37:53;;;;;;;5.80;1.60;;;;;;;20.07;44.27;100402.84;4956797;28;20034;-77
2021/11/12 16:40:41;;;;;;;4.75;1.17;;;;;;;19.82;44.65;100395.13;4939164;28;20122;-80
2021/11/12 16:48:24;;;;;;;9.90;1.90;;;;;;;19.64;45.02;100419.13;4955749;28;20038;-75
2021/11/12 16:51:13;;;;;;;5.13;1.15;;;;;;;19.59;45.32;100419.47;4957683;28;20027;-77
2021/11/12 16:54:03;;;;;;;6.88;1.60;;;;;;;20.14;43.90;100425.88;4959357;28;20034;-76
2021/11/12 16:59:18;;;;;;;3.67;1.20;;;;;;;20.21;43.88;100436.22;4961573;28;21043;-75
2021/11/12 17:02:02;;;;;;;5.03;1.25;;;;;;;20.15;44.06;100438.56;4938338;28;20129;-74
2021/11/12 17:04:38;;;;;;;6.93;1.30;;;;;;;19.80;44.97;100458.50;4958686;28;20030;-75
2021/11/12 17:10:12;;;;;;;6.53;1.63;;;;;;;19.87;44.72;100472.38;4922918;28;20031;-75
2021/11/12 17:44:54;;;;;;;9.98;1.92;;;;;;;20.02;44.88;100534.31;4974681;28;20543;-76